METAR AND TAF INFORMATION
METAR FOR ENDU
ADDS - METARS form results

(1446 UTC 13 July 2020)
Data provider http://aviationweather.gov/metar/data/
 
METAR text: ENDU 131420Z 27005KT 230V290 9999 VCSH FEW006 SCT035TCU BKN080 13/12 Q1017 NOSIG RMK WIND 1100FT 32005KT WIND 2200FT 02008KT
Conditions at: ENDU (BARDUFOSS (CIV/M, NO) observed 1420 UTC 13 July 2020
Temperature: 13.0°C (55°F)
Dewpoint: 12.0°C (54°F) [RH = 94%]
Pressure (altimeter): 30.03 inches Hg (1017.0 mb)
Winds: from the W (270 degrees) at 6 MPH (5 knots; 2.6 m/s)
Visibility: 6 or more miles (10+ km)
Ceiling: 8000 feet AGL
Clouds: few clouds at 600 feet AGL
scattered clouds at 3500 feet AGL
broken clouds at 8000 feet AGL
Weather: VCSH  (showers in vicinity)

METAR text: ENDU 131350Z 00000KT 9999 -SHRA FEW020 FEW025TCU BKN040 13/11 Q1016 TEMPO SHRA SCT025CB RMK WIND 1100FT 27005KT WIND 2200FT 05003KT
Conditions at: ENDU (BARDUFOSS (CIV/M, NO) observed 1350 UTC 13 July 2020
Temperature: 13.0°C (55°F)
Dewpoint: 11.0°C (52°F) [RH = 88%]
Pressure (altimeter): 30.00 inches Hg (1016.0 mb)
Winds: calm
Visibility: 6 or more miles (10+ km)
Ceiling: 4000 feet AGL
Clouds: few clouds at 2000 feet AGL
few clouds at 2500 feet AGL
broken clouds at 4000 feet AGL
Weather: -SHRA  (light rain showers)

Forecast for: ENDU (BARDUFOSS (CIV/M, NO)
Text: TAF ENDU 1312/1412 02005KT 9999 FEW015 SCT035TCU BKN045
Forecast period: 1200 UTC 13 July 2020 to 1200 UTC 14 July 2020
Forecast type: FROM: standard forecast or significant change
Winds: from the NNE (20 degrees) at 6 MPH (5 knots; 2.6 m/s)
Visibility: 6 or more miles 10+ km)
Ceiling: 4500 feet AGL
Clouds: few clouds at 1500 feet AGL
scattered clouds at 3500 feet AGL
broken clouds at 4500 feet AGL
Weather: no significant weather forecast for this period
Text: TEMPO 1312/1322 SHRA SCT025CB
Forecast period: 1200 to 2200 UTC 13 July 2020
Forecast type: TEMPORARY: The following changes expected for less than half the time period
Visibility: missing
Ceiling: at least 12,000 feet AGL
Clouds: scattered clouds at 2500 feet AGL
Weather: SHRA  (rain showers)

 AIRPORT MAP

 RUNWAY INFORMATION
Runway 10 Runway length 8015 ft Runway width 148 ft
Runway elevation 252 ft Runway displaced threshold 1880 ft Runway heading 109
Runway 28 Runway length 8015 ft Runway width 148 ft
Runway elevation 219 ft Runway displaced threshold 0 ft Runway heading 289

 AIRPORT FREQUENCIES
Type APP Name APP Frequency 118.8 MHZ
Type ATIS Name ATIS Frequency 129.725 MHZ
Type TWR Name TWR Frequency 118.1 MHZ

 AIRPORT NEAR NAVIGATION AIDS
Type TACAN Name Bardufoss Frequency 113400 KHZ
Type VOR-DME Name Bardufoss Frequency 114200 KHZ
Type NDB Name Sorreisa Frequency 338 KHZ
Type NDB Name Senja Frequency 414 KHZ
Type NDB Name Fossmo Frequency 371 KHZ
Type NDB Name Tiller Frequency 350 KHZ